CDT,Max TemperatureF,Mean TemperatureF,Min TemperatureF,Max Dew PointF,MeanDew PointF,Min DewpointF,Max Humidity, Mean Humidity, Min Humidity, Max Sea Level PressureIn, Mean Sea Level PressureIn, Min Sea Level PressureIn, Max VisibilityMiles, Mean VisibilityMiles, Min VisibilityMiles, Max Wind SpeedMPH, Mean Wind SpeedMPH, Max Gust SpeedMPH,PrecipitationIn, CloudCover, Events, WindDirDegrees
2013-8-1,77,65,53,61,52,46,100,66,34,29.97,29.94,29.89,10,10,10,15,6,22,0.00,2,,291
2013-8-2,78,64,51,57,52,45,100,65,32,29.98,29.87,29.83,10,10,10,13,3,17,0.00,2,,311
2013-8-3,73,62,50,52,49,46,100,64,38,30.16,30.07,29.99,10,10,10,12,3,18,0.00,2,,325
2013-8-4,71,58,46,54,49,43,100,68,38,30.25,30.19,30.12,10,10,10,7,2,,0.00,1,,72
2013-8-5,71,62,53,63,57,52,100,82,60,30.12,29.96,29.85,10,10,10,10,4,16,0.00,6,Rain,189
2013-8-6,80,70,60,64,61,55,100,76,42,29.86,29.81,29.72,10,10,7,12,3,16,0.00,5,,230
2013-8-7,77,66,55,61,57,52,100,77,47,30.02,29.86,29.73,10,8,0,20,7,33,0.89,5,Fog-Rain,326
2013-8-8,75,60,46,59,51,46,100,71,38,30.06,30.03,29.99,10,10,2,10,1,16,0.00,1,,214
2013-8-9,77,64,51,59,52,46,100,66,34,30.07,29.99,29.96,10,10,10,15,4,23,0.00,4,,300
2013-8-10,71,62,53,55,53,46,94,69,41,30.16,30.13,30.08,10,10,10,9,1,,0.00,6,,307
2013-8-11,69,60,51,61,56,52,100,84,60,30.13,30.09,30.03,10,10,7,9,2,,0.00,2,Rain,211
2013-8-12,78,66,55,63,55,46,100,72,36,30.06,29.97,29.90,10,7,0,14,4,20,0.00,6,Fog-Rain,330
2013-8-13,68,56,44,46,45,41,100,65,37,30.19,30.12,30.06,10,10,10,13,5,18,0.00,2,,354
2013-8-14,71,56,41,52,45,39,100,71,35,30.24,30.18,30.11,10,10,7,9,1,,0.00,2,,281
2013-8-15,77,60,44,54,48,43,100,65,32,30.14,30.10,30.07,10,10,10,13,2,18,0.00,3,,297
2013-8-16,80,66,51,59,53,46,94,66,32,30.19,30.16,30.11,10,10,10,7,1,,0.00,1,,251
2013-8-17,80,66,51,59,54,50,100,68,34,30.25,30.20,30.15,10,10,5,10,2,,0.00,0,,192
2013-8-18,80,66,51,59,54,50,100,68,37,30.22,30.15,30.08,10,10,2,10,2,,0.00,1,,193
2013-8-19,82,66,51,61,56,52,100,69,37,30.09,30.03,29.98,10,10,7,15,4,18,0.00,0,,227
2013-8-20,87,73,59,64,61,57,100,70,40,30.05,30.00,29.96,10,9,5,15,4,20,0.03,2,,199
2013-8-21,91,78,64,70,66,63,100,71,49,30.01,29.95,29.85,10,10,7,16,7,21,0.00,3,Rain,206
2013-8-22,80,70,57,64,60,54,100,78,42,30.15,30.08,30.00,10,9,4,8,2,,0.01,0,,60
2013-8-23,78,64,51,61,55,52,100,71,41,30.23,30.18,30.14,10,10,4,8,3,,0.00,1,,117
2013-8-24,80,66,51,64,56,50,100,70,34,30.26,30.20,30.13,10,10,2,14,4,18,0.00,0,,171
2013-8-25,93,81,69,70,67,64,83,66,43,30.14,30.07,30.01,10,10,10,17,9,23,0.00,0,,215
2013-8-26,86,77,68,73,69,64,100,79,62,30.12,30.00,29.92,10,10,7,18,5,25,0.18,2,Rain,176
2013-8-27,89,79,69,77,72,70,100,85,55,29.97,29.87,29.79,10,8,2,13,4,18,0.35,5,Rain,131
2013-8-28,82,75,68,72,69,66,100,84,58,30.06,30.00,29.90,10,9,4,6,3,,0.00,5,,50
2013-8-29,86,75,64,70,67,64,100,77,48,30.10,30.03,29.95,10,8,0,12,3,21,0.00,1,Fog,174
2013-8-30,82,72,62,72,66,61,94,77,51,29.98,29.87,29.81,10,10,7,14,6,20,0.00,4,,26
2013-8-31,77,66,55,64,61,55,100,86,61,29.92,29.88,29.80,10,9,1,8,2,,0.00,3,,110